Elizabeth Anne — WDI5309 — position and weather

sailwx.info

Track history (hours):
 
Tides and Currents Weather Stations Pressure Air Temp Water Temp Dewpoint Dewpoint Depression Visibility Wind Speed Wind Dir Waves Ship Positions

Elizabeth Anne

Owner: Vane Line Bunkering, Inc., Philadelphia, PA. More information available from US FCC via Universal Licensing System and Coast Guard Vessel Documentation Center.

Last reported at 2017-Oct-22 22:30 UTC. Time now 2017-Oct-22 22:59 UTC.
Position N 42°21' W 071°01'.

; draft 5 m.

Type: Tug. MMSI: 369008000.

Date/timePositionNaut miles runAvg speedWind from/ knotsBaromVisibWave heightAir tempDewpointWater temp
2017-Oct-22 22:30N 42°21' W 071°01'0 0.0
2017-Oct-22 22:00N 42°21' W 071°01'0 0.0
2017-Oct-22 21:30N 42°21' W 071°01'0 0.0
2017-Oct-22 21:00N 42°21' W 071°01'0 0.1
2017-Oct-22 20:30N 42°21' W 071°01'0 0.1
2017-Oct-22 20:00N 42°21' W 071°02'0 0.1
2017-Oct-22 19:30N 42°21' W 071°02'0 0.1
2017-Oct-22 19:00N 42°21' W 071°02'1 2.2
2017-Oct-22 18:30N 42°20' W 071°00'1 2.9
2017-Oct-22 18:00N 42°20' W 070°58'1 2.0
2017-Oct-22 17:30N 42°20' W 070°57'4 6.1
2017-Oct-22 16:53N 42°23' W 070°53'3 7.2
2017-Oct-22 16:30N 42°22' W 070°50'4 7.0
2017-Oct-22 16:00N 42°20' W 070°46'4 7.1
2017-Oct-22 15:30N 42°18' W 070°43'3 7.0
2017-Oct-22 15:00N 42°15' W 070°39'4 7.2
2017-Oct-22 14:30N 42°13' W 070°36'4 7.1
2017-Oct-22 14:00N 42°10' W 070°33'3 7.0
2017-Oct-22 13:30N 42°06' W 070°32'13 7.1
2017-Oct-22 11:39N 41°54' W 070°28'7 5.1
2017-Oct-22 10:21N 41°47' W 070°29'43 6.0
2017-Oct-22 03:12N 41°17' W 071°10'2 6.8
2017-Oct-22 02:51N 41°15' W 071°12'2 6.7
2017-Oct-22 02:30N 41°13' W 071°14'3 6.7
2017-Oct-22 02:00N 41°10' W 071°16'3 6.3
2017-Oct-22 01:27N 41°09' W 071°20'3 6.8
2017-Oct-22 01:00N 41°08' W 071°24'71 6.8
2017-Oct-21 14:42N 40°41' W 072°50'2 7.1
2017-Oct-21 14:28N 40°40' W 072°52'7 7.0
2017-Oct-21 13:29N 40°38' W 073°01'3 6.9
2017-Oct-21 13:00N 40°37' W 073°05'28 6.4
2017-Oct-21 08:39N 40°30' W 073°40'1 6.6
2017-Oct-21 08:30N 40°29' W 073°41'3 6.7
2017-Oct-21 08:00N 40°26' W 073°43'4 5.3
2017-Oct-21 07:18N 40°23' W 073°46'2 6.9
2017-Oct-21 06:59N 40°21' W 073°48'32 6.5
2017-Oct-21 02:06N 39°50' W 073°58'1 6.8
2017-Oct-21 02:00N 39°49' W 073°58'3 6.9
2017-Oct-21 01:30N 39°46' W 073°59'3 7.0
2017-Oct-21 01:00N 39°43' W 073°60'3 7.0
2017-Oct-21 00:30N 39°40' W 074°02'4 7.0
2017-Oct-20 23:59N 39°36' W 074°03'3 6.9
2017-Oct-20 23:30N 39°33' W 074°05'3 6.9
2017-Oct-20 23:00N 39°30' W 074°07'3 6.9
2017-Oct-20 22:30N 39°27' W 074°09'48 6.2
2017-Oct-20 14:43N 38°51' W 074°49'6 6.0
2017-Oct-20 13:41N 38°48' W 074°57'1 5.7
2017-Oct-20 13:26N 38°48' W 074°59'3 5.1
2017-Oct-20 12:49N 38°49' W 075°02'2 5.5
2017-Oct-20 12:31N 38°51' W 075°03'3 5.1
2017-Oct-20 12:00N 38°53' W 075°05'2 4.8
2017-Oct-20 11:30N 38°55' W 075°06'2 4.9
2017-Oct-20 11:01N 38°58' W 075°07'3 5.0
2017-Oct-20 10:31N 38°60' W 075°09'1 1.5
2017-Oct-20 10:00N 39°00' W 075°10'0 0.3
2017-Oct-20 09:31N 39°00' W 075°09'1 2.9
2017-Oct-20 09:01N 39°02' W 075°10'2 4.8
2017-Oct-20 08:30N 39°04' W 075°11'3 5.2
2017-Oct-20 08:00N 39°06' W 075°12'3 5.5
2017-Oct-20 07:30N 39°09' W 075°14'3 5.5
2017-Oct-20 07:00N 39°11' W 075°16'3 6.2
2017-Oct-20 06:30N 39°14' W 075°18'3 6.1
2017-Oct-20 06:00N 39°16' W 075°20'3 5.7
2017-Oct-20 05:30N 39°18' W 075°23'3 5.3
2017-Oct-20 05:00N 39°20' W 075°25'2 4.7
2017-Oct-20 04:30N 39°22' W 075°27'3 5.1
2017-Oct-20 04:00N 39°24' W 075°29'3 5.4
2017-Oct-20 03:30N 39°26' W 075°32'3 5.5
2017-Oct-20 03:00N 39°28' W 075°34'3 5.1
2017-Oct-20 02:30N 39°30' W 075°33'3 5.0
2017-Oct-20 02:00N 39°33' W 075°33'3 5.3
2017-Oct-20 01:31N 39°35' W 075°34'3 5.2
2017-Oct-20 01:01N 39°38' W 075°34'3 6.4
2017-Oct-20 00:31N 39°40' W 075°32'4 7.2
2017-Oct-20 00:00N 39°44' W 075°30'4 7.5
2017-Oct-19 23:31N 39°47' W 075°28'4 8.0
2017-Oct-19 23:01N 39°49' W 075°23'4 8.3
2017-Oct-19 22:31N 39°51' W 075°18'4 7.4
2017-Oct-19 22:00N 39°51' W 075°14'0 0.0
2017-Oct-19 21:30N 39°51' W 075°14'0 0.0
2017-Oct-19 21:01N 39°51' W 075°14'0 0.0
2017-Oct-19 20:31N 39°51' W 075°14'0 0.3
2017-Oct-19 20:00N 39°51' W 075°14'2 4.9
2017-Oct-19 19:31N 39°54' W 075°12'0 0.0
2017-Oct-19 19:01N 39°54' W 075°12'0 0.0
2017-Oct-19 18:31N 39°54' W 075°12'0 0.0
2017-Oct-19 18:00N 39°54' W 075°12'0 0.0
2017-Oct-19 17:30N 39°54' W 075°12'0 0.0
2017-Oct-19 17:00N 39°54' W 075°12'0 0.0
2017-Oct-19 16:30N 39°54' W 075°12'0 0.0
2017-Oct-19 16:00N 39°54' W 075°12'0 0.0
2017-Oct-19 15:30N 39°54' W 075°12'0 0.0
2017-Oct-19 15:00N 39°54' W 075°12'0 0.0
2017-Oct-19 14:31N 39°54' W 075°12'0 0.0
2017-Oct-19 14:00N 39°54' W 075°12'0 0.0
2017-Oct-19 13:30N 39°54' W 075°12'0 0.0
2017-Oct-19 13:00N 39°54' W 075°12'0 0.0
2017-Oct-19 12:31N 39°54' W 075°12'0 0.0
2017-Oct-19 12:01N 39°54' W 075°12'0 0.0
2017-Oct-19 11:30N 39°54' W 075°12'0 0.0
2017-Oct-19 11:01N 39°54' W 075°12'0 0.0
2017-Oct-19 10:31N 39°54' W 075°12'0 0.0
2017-Oct-19 10:01N 39°54' W 075°12'0 0.0
2017-Oct-19 09:31N 39°54' W 075°12'0 0.0
2017-Oct-19 09:01N 39°54' W 075°12'0 0.0
2017-Oct-19 08:31N 39°54' W 075°12'0 0.0
2017-Oct-19 08:00N 39°54' W 075°12'0 0.0
2017-Oct-19 07:31N 39°54' W 075°12'0 0.0
2017-Oct-19 07:00N 39°54' W 075°12'0 0.2
2017-Oct-19 06:31N 39°54' W 075°12'3 5.3
2017-Oct-19 06:00N 39°51' W 075°14'0 0.1
2017-Oct-19 05:31N 39°51' W 075°14'3 5.4
2017-Oct-19 05:01N 39°54' W 075°12'1 2.6
2017-Oct-19 04:30N 39°55' W 075°13'1 2.1
2017-Oct-19 04:01N 39°54' W 075°12'0 0.0
2017-Oct-19 03:31N 39°54' W 075°12'0 0.0
2017-Oct-19 03:00N 39°54' W 075°12'0 0.0
2017-Oct-19 02:31N 39°54' W 075°12'0 0.0
2017-Oct-19 02:00N 39°54' W 075°12'0 0.0
2017-Oct-19 01:31N 39°54' W 075°12'0 0.0
2017-Oct-19 01:01N 39°54' W 075°12'0 0.0
2017-Oct-19 00:31N 39°54' W 075°12'0 0.0
2017-Oct-19 00:00N 39°54' W 075°12'0 0.0
2017-Oct-18 23:31N 39°54' W 075°12'0 0.0
2017-Oct-18 23:00N 39°54' W 075°12'0 0.0
2017-Oct-18 22:30N 39°54' W 075°12'0 0.0
2017-Oct-18 22:01N 39°54' W 075°12'0 0.0
2017-Oct-18 21:30N 39°54' W 075°12'0 0.0
2017-Oct-18 21:01N 39°54' W 075°12'0 0.0
2017-Oct-18 20:31N 39°54' W 075°12'0 0.0
2017-Oct-18 20:00N 39°54' W 075°12'0 0.0
2017-Oct-18 19:30N 39°54' W 075°12'0 0.0
2017-Oct-18 19:00N 39°54' W 075°12'0 0.0
2017-Oct-18 18:30N 39°54' W 075°12'0 0.0
2017-Oct-18 18:00N 39°54' W 075°12'0 0.0
2017-Oct-18 17:30N 39°54' W 075°12'0 0.0
2017-Oct-18 17:00N 39°54' W 075°12'0 0.0
2017-Oct-18 16:30N 39°54' W 075°12'0 0.0
2017-Oct-18 16:00N 39°54' W 075°12'0 0.0
2017-Oct-18 15:30N 39°54' W 075°12'1 2.0
2017-Oct-18 15:00N 39°55' W 075°13'3 3.3
2017-Oct-18 14:00N 39°51' W 075°14'5 9.0
2017-Oct-18 13:30N 39°51' W 075°20'5 9.1
2017-Oct-18 13:01N 39°48' W 075°25'4 8.5
2017-Oct-18 12:30N 39°45' W 075°29'4 8.2
2017-Oct-18 12:00N 39°42' W 075°31'4 7.6
2017-Oct-18 11:30N 39°38' W 075°34'3 6.7
2017-Oct-18 11:00N 39°35' W 075°34'3 7.0
2017-Oct-18 10:31N 39°32' W 075°33'3 6.7
2017-Oct-18 10:00N 39°28' W 075°34'3 6.3
2017-Oct-18 09:30N 39°26' W 075°32'3 5.7
2017-Oct-18 09:00N 39°24' W 075°29'3 5.6
2017-Oct-18 08:31N 39°21' W 075°27'3 5.3
2017-Oct-18 08:01N 39°20' W 075°24'3 5.1
2017-Oct-18 07:30N 39°18' W 075°22'3 5.5
2017-Oct-18 07:01N 39°16' W 075°20'3 5.2
2017-Oct-18 06:30N 39°14' W 075°18'3 5.1
2017-Oct-18 06:00N 39°11' W 075°16'3 5.6
2017-Oct-18 05:30N 39°09' W 075°14'2 4.3
2017-Oct-18 05:00N 39°07' W 075°13'3 5.8
2017-Oct-18 04:30N 39°05' W 075°11'3 6.0
2017-Oct-18 04:00N 39°02' W 075°10'2 3.7
2017-Oct-18 03:31N 38°60' W 075°09'0 0.8
2017-Oct-18 03:01N 38°60' W 075°09'3 5.1
2017-Oct-18 02:30N 38°58' W 075°07'3 5.2
2017-Oct-18 02:00N 38°55' W 075°05'4 5.8
2017-Oct-18 01:22N 38°52' W 075°03'57 6.2
2017-Oct-17 16:14N 39°29' W 074°07'3 7.2
2017-Oct-17 15:51N 39°31' W 074°06'3 7.2
2017-Oct-17 15:29N 39°34' W 074°04'3 7.2
2017-Oct-17 15:00N 39°37' W 074°03'4 7.2
2017-Oct-17 14:30N 39°40' W 074°01'4 7.2
2017-Oct-17 14:00N 39°44' W 073°60'4 7.1
2017-Oct-17 13:30N 39°47' W 073°59'4 6.9
2017-Oct-17 12:59N 39°51' W 073°58'12 7.0
2017-Oct-17 11:19N 40°02' W 073°58'2 6.9
2017-Oct-17 11:00N 40°05' W 073°58'24 6.8
2017-Oct-17 07:23N 40°29' W 073°54'3 5.7
2017-Oct-17 06:54N 40°30' W 073°57'2 5.4
2017-Oct-17 06:30N 40°31' W 074°00'3 6.3
2017-Oct-17 06:00N 40°34' W 074°02'1 2.4
2017-Oct-17 05:30N 40°35' W 074°02'3 6.2
2017-Oct-17 05:01N 40°38' W 074°04'2 4.8
2017-Oct-17 04:30N 40°39' W 074°07'0 0.1
2017-Oct-17 04:00N 40°39' W 074°07'3 5.2
2017-Oct-17 03:30N 40°39' W 074°03'2 4.7
2017-Oct-17 03:00N 40°40' W 074°00'0 0.0
2017-Oct-17 02:30N 40°40' W 074°00'0 0.0
2017-Oct-17 02:00N 40°40' W 074°00'0 0.0
2017-Oct-17 01:30N 40°40' W 074°00'0 0.0
2017-Oct-17 01:00N 40°40' W 074°00'0 0.0
2017-Oct-17 00:30N 40°40' W 074°00'0 0.0
2017-Oct-17 00:00N 40°40' W 074°00'0 0.0
2017-Oct-16 23:30N 40°40' W 074°00'0 0.0
2017-Oct-16 23:00N 40°40' W 074°00'0 0.0
2017-Oct-16 22:30N 40°40' W 074°00'0 0.0
2017-Oct-16 22:00N 40°40' W 074°00'0 0.0
2017-Oct-16 21:30N 40°40' W 074°00'0 0.0
2017-Oct-16 21:00N 40°40' W 074°00'0 0.0
2017-Oct-16 20:30N 40°40' W 074°00'0 0.0
2017-Oct-16 20:00N 40°40' W 074°00'0 0.0
2017-Oct-16 19:30N 40°40' W 074°00'0 0.0
2017-Oct-16 19:00N 40°40' W 074°00'0 0.0
2017-Oct-16 18:30N 40°40' W 074°00'0 0.0
2017-Oct-16 18:00N 40°40' W 074°00'0 0.1
2017-Oct-16 17:31N 40°40' W 074°01'0 0.0
2017-Oct-16 17:00N 40°40' W 074°01'0 0.1
2017-Oct-16 16:30N 40°40' W 074°00'0 0.0
2017-Oct-16 16:00N 40°40' W 074°00'0 0.0
2017-Oct-16 15:30N 40°40' W 074°00'0 0.0
2017-Oct-16 15:00N 40°40' W 074°00'0 0.0
2017-Oct-16 14:30N 40°40' W 074°00'0 0.0
2017-Oct-16 13:30N 40°40' W 074°00'0 0.0
2017-Oct-16 13:00N 40°40' W 074°00'0 0.0
2017-Oct-16 12:30N 40°40' W 074°00'0 0.0
2017-Oct-16 12:00N 40°40' W 074°00'0 0.5
2017-Oct-16 11:30N 40°40' W 074°00'0 0.0
2017-Oct-16 11:00N 40°40' W 074°00'0 0.0
2017-Oct-16 10:30N 40°40' W 074°00'0 0.0
2017-Oct-16 10:00N 40°40' W 074°00'0 0.0
2017-Oct-16 09:30N 40°40' W 074°00'0 0.0
2017-Oct-16 09:00N 40°40' W 074°00'0 0.0
2017-Oct-16 08:30N 40°40' W 074°00'0 0.0
2017-Oct-16 08:00N 40°40' W 074°00'0 0.0
2017-Oct-16 07:31N 40°40' W 074°00'4 7.8
2017-Oct-16 07:00N 40°39' W 074°05'1 2.2
2017-Oct-16 06:30N 40°39' W 074°07'0 0.1
2017-Oct-16 06:00N 40°39' W 074°07'0 0.1
2017-Oct-16 05:30N 40°39' W 074°07'1 2.7
2017-Oct-16 05:00N 40°39' W 074°05'1 2.6
2017-Oct-16 04:30N 40°39' W 074°07'0 0.1
2017-Oct-16 04:00N 40°39' W 074°07'2 5.0
2017-Oct-16 03:30N 40°39' W 074°03'1 1.1
2017-Oct-16 03:00N 40°38' W 074°03'0 0.2
2017-Oct-16 02:30N 40°39' W 074°03'0 0.1
2017-Oct-16 02:00N 40°39' W 074°03'0 0.1
2017-Oct-16 01:30N 40°39' W 074°03'2 4.7
2017-Oct-16 01:01N 40°41' W 074°01'4 8.3
2017-Oct-16 00:30N 40°44' W 073°58'5 9.0
2017-Oct-16 00:00N 40°48' W 073°55'4 8.8
2017-Oct-15 23:30N 40°48' W 073°49'2 3.1
2017-Oct-15 22:59N 40°49' W 073°47'1 2.9
2017-Oct-15 22:30N 40°50' W 073°46'51 8.9
2017-Oct-15 16:43N 41°06' W 072°42'2 8.3
2017-Oct-15 16:30N 41°07' W 072°39'4 7.9
2017-Oct-15 16:00N 41°08' W 072°34'4 7.7
2017-Oct-15 15:30N 41°09' W 072°30'4 7.6
2017-Oct-15 15:00N 41°10' W 072°25'8 7.4
2017-Oct-15 13:59N 41°12' W 072°15'4 8.2
2017-Oct-15 13:30N 41°13' W 072°10'87 8.1
2017-Oct-15 02:48N 41°48' W 070°24'30 5.8
2017-Oct-14 21:36N 42°16' W 070°41'1 8.7
2017-Oct-14 21:30N 42°16' W 070°41'4 8.7
2017-Oct-14 21:00N 42°19' W 070°46'4 8.8
2017-Oct-14 20:31N 42°22' W 070°50'4 7.6
2017-Oct-14 20:01N 42°22' W 070°55'3 6.1
2017-Oct-14 19:31N 42°20' W 070°58'2 4.4
2017-Oct-14 19:00N 42°21' W 071°01'3 5.3
2017-Oct-14 18:30N 42°23' W 071°03'0 0.2
2017-Oct-14 18:00N 42°23' W 071°03'0 0.1
2017-Oct-14 17:30N 42°23' W 071°03'0 0.0
2017-Oct-14 17:00N 42°23' W 071°03'0 0.0
2017-Oct-14 16:30N 42°23' W 071°03'0 0.0
2017-Oct-14 16:00N 42°23' W 071°03'0 0.0
2017-Oct-14 15:30N 42°23' W 071°03'0 0.0
2017-Oct-14 15:00N 42°23' W 071°03'0 0.0
2017-Oct-14 14:30N 42°23' W 071°03'0 0.0
2017-Oct-14 14:00N 42°23' W 071°03'0 0.0
2017-Oct-14 13:30N 42°23' W 071°03'0 0.0
2017-Oct-14 13:00N 42°23' W 071°03'0 0.0
2017-Oct-14 12:30N 42°23' W 071°03'0 0.0
2017-Oct-14 12:00N 42°23' W 071°03'0 0.0
2017-Oct-14 11:30N 42°23' W 071°03'0 0.0
2017-Oct-14 11:00N 42°23' W 071°03'0 0.0
2017-Oct-14 10:30N 42°23' W 071°03'0 0.0
2017-Oct-14 10:00N 42°23' W 071°03'0 0.0
2017-Oct-14 09:30N 42°23' W 071°03'0 0.0
2017-Oct-14 09:00N 42°23' W 071°03'0 0.0
2017-Oct-14 08:30N 42°23' W 071°03'0 0.0
2017-Oct-14 08:00N 42°23' W 071°03'0 0.0
2017-Oct-14 07:30N 42°23' W 071°03'0 0.0
2017-Oct-14 07:00N 42°23' W 071°03'0 0.0
2017-Oct-14 06:30N 42°23' W 071°03'0 0.0
2017-Oct-14 06:00N 42°23' W 071°03'0 0.0
2017-Oct-14 05:30N 42°23' W 071°03'0 0.0
2017-Oct-14 05:00N 42°23' W 071°03'0 0.0
2017-Oct-14 04:30N 42°23' W 071°03'0 0.0
2017-Oct-14 04:00N 42°23' W 071°03'0 0.0
2017-Oct-14 03:30N 42°23' W 071°03'0 0.0
2017-Oct-14 03:00N 42°23' W 071°03'0 0.0
2017-Oct-14 02:30N 42°23' W 071°03'0 0.0
2017-Oct-14 02:00N 42°23' W 071°03'0 0.0
2017-Oct-14 01:30N 42°23' W 071°03'2 3.6
2017-Oct-14 00:58N 42°21' W 071°02'3 6.0
2017-Oct-14 00:29N 42°20' W 070°58'1 1.5
2017-Oct-14 00:00N 42°20' W 070°57'2 4.1
2017-Oct-13 23:30N 42°22' W 070°55'3 6.2
2017-Oct-13 23:01N 42°23' W 070°52'3 6.3
2017-Oct-13 22:30N 42°21' W 070°48'3 6.5
2017-Oct-13 22:00N 42°19' W 070°45'3 6.6
2017-Oct-13 21:30N 42°17' W 070°42'3 6.7
2017-Oct-13 21:00N 42°14' W 070°39'3 6.6
2017-Oct-13 20:30N 42°11' W 070°36'  
Track history (hours):
 
Tides and Currents Weather Stations Pressure Air Temp Water Temp Dewpoint Dewpoint Depression Visibility Wind Speed Wind Dir Waves Ship Positions

Elizabeth Anne

Owner: Vane Line Bunkering, Inc., Philadelphia, PA. More information available from US FCC via Universal Licensing System and Coast Guard Vessel Documentation Center.

Last reported at 2017-Oct-22 22:30 UTC. Time now 2017-Oct-22 22:59 UTC.
Position N 42°21' W 071°01'.

; draft 5 m.

Type: Tug. MMSI: 369008000.

Date/timePositionNaut miles runAvg speedWind from/ knotsBaromVisibWave heightAir tempDewpointWater temp
2017-Oct-22 22:30N 42°21' W 071°01'0 0.0
2017-Oct-22 22:00N 42°21' W 071°01'0 0.0
2017-Oct-22 21:30N 42°21' W 071°01'0 0.0
2017-Oct-22 21:00N 42°21' W 071°01'0 0.1
2017-Oct-22 20:30N 42°21' W 071°01'0 0.1
2017-Oct-22 20:00N 42°21' W 071°02'0 0.1
2017-Oct-22 19:30N 42°21' W 071°02'0 0.1
2017-Oct-22 19:00N 42°21' W 071°02'1 2.2
2017-Oct-22 18:30N 42°20' W 071°00'1 2.9
2017-Oct-22 18:00N 42°20' W 070°58'1 2.0
2017-Oct-22 17:30N 42°20' W 070°57'4 6.1
2017-Oct-22 16:53N 42°23' W 070°53'3 7.2
2017-Oct-22 16:30N 42°22' W 070°50'4 7.0
2017-Oct-22 16:00N 42°20' W 070°46'4 7.1
2017-Oct-22 15:30N 42°18' W 070°43'3 7.0
2017-Oct-22 15:00N 42°15' W 070°39'4 7.2
2017-Oct-22 14:30N 42°13' W 070°36'4 7.1
2017-Oct-22 14:00N 42°10' W 070°33'3 7.0
2017-Oct-22 13:30N 42°06' W 070°32'13 7.1
2017-Oct-22 11:39N 41°54' W 070°28'7 5.1
2017-Oct-22 10:21N 41°47' W 070°29'43 6.0
2017-Oct-22 03:12N 41°17' W 071°10'2 6.8
2017-Oct-22 02:51N 41°15' W 071°12'2 6.7
2017-Oct-22 02:30N 41°13' W 071°14'3 6.7
2017-Oct-22 02:00N 41°10' W 071°16'3 6.3
2017-Oct-22 01:27N 41°09' W 071°20'3 6.8
2017-Oct-22 01:00N 41°08' W 071°24'71 6.8
2017-Oct-21 14:42N 40°41' W 072°50'2 7.1
2017-Oct-21 14:28N 40°40' W 072°52'7 7.0
2017-Oct-21 13:29N 40°38' W 073°01'3 6.9
2017-Oct-21 13:00N 40°37' W 073°05'28 6.4
2017-Oct-21 08:39N 40°30' W 073°40'1 6.6
2017-Oct-21 08:30N 40°29' W 073°41'3 6.7
2017-Oct-21 08:00N 40°26' W 073°43'4 5.3
2017-Oct-21 07:18N 40°23' W 073°46'2 6.9
2017-Oct-21 06:59N 40°21' W 073°48'32 6.5
2017-Oct-21 02:06N 39°50' W 073°58'1 6.8
2017-Oct-21 02:00N 39°49' W 073°58'3 6.9
2017-Oct-21 01:30N 39°46' W 073°59'3 7.0
2017-Oct-21 01:00N 39°43' W 073°60'3 7.0
2017-Oct-21 00:30N 39°40' W 074°02'4 7.0
2017-Oct-20 23:59N 39°36' W 074°03'3 6.9
2017-Oct-20 23:30N 39°33' W 074°05'3 6.9
2017-Oct-20 23:00N 39°30' W 074°07'3 6.9
2017-Oct-20 22:30N 39°27' W 074°09'48 6.2
2017-Oct-20 14:43N 38°51' W 074°49'6 6.0
2017-Oct-20 13:41N 38°48' W 074°57'1 5.7
2017-Oct-20 13:26N 38°48' W 074°59'3 5.1
2017-Oct-20 12:49N 38°49' W 075°02'2 5.5
2017-Oct-20 12:31N 38°51' W 075°03'3 5.1
2017-Oct-20 12:00N 38°53' W 075°05'2 4.8
2017-Oct-20 11:30N 38°55' W 075°06'2 4.9
2017-Oct-20 11:01N 38°58' W 075°07'3 5.0
2017-Oct-20 10:31N 38°60' W 075°09'1 1.5
2017-Oct-20 10:00N 39°00' W 075°10'0 0.3
2017-Oct-20 09:31N 39°00' W 075°09'1 2.9
2017-Oct-20 09:01N 39°02' W 075°10'2 4.8
2017-Oct-20 08:30N 39°04' W 075°11'3 5.2
2017-Oct-20 08:00N 39°06' W 075°12'3 5.5
2017-Oct-20 07:30N 39°09' W 075°14'3 5.5
2017-Oct-20 07:00N 39°11' W 075°16'3 6.2
2017-Oct-20 06:30N 39°14' W 075°18'3 6.1
2017-Oct-20 06:00N 39°16' W 075°20'3 5.7
2017-Oct-20 05:30N 39°18' W 075°23'3 5.3
2017-Oct-20 05:00N 39°20' W 075°25'2 4.7
2017-Oct-20 04:30N 39°22' W 075°27'3 5.1
2017-Oct-20 04:00N 39°24' W 075°29'3 5.4
2017-Oct-20 03:30N 39°26' W 075°32'3 5.5
2017-Oct-20 03:00N 39°28' W 075°34'3 5.1
2017-Oct-20 02:30N 39°30' W 075°33'3 5.0
2017-Oct-20 02:00N 39°33' W 075°33'3 5.3
2017-Oct-20 01:31N 39°35' W 075°34'3 5.2
2017-Oct-20 01:01N 39°38' W 075°34'3 6.4
2017-Oct-20 00:31N 39°40' W 075°32'4 7.2
2017-Oct-20 00:00N 39°44' W 075°30'4 7.5
2017-Oct-19 23:31N 39°47' W 075°28'4 8.0
2017-Oct-19 23:01N 39°49' W 075°23'4 8.3
2017-Oct-19 22:31N 39°51' W 075°18'4 7.4
2017-Oct-19 22:00N 39°51' W 075°14'0 0.0
2017-Oct-19 21:30N 39°51' W 075°14'0 0.0
2017-Oct-19 21:01N 39°51' W 075°14'0 0.0
2017-Oct-19 20:31N 39°51' W 075°14'0 0.3
2017-Oct-19 20:00N 39°51' W 075°14'2 4.9
2017-Oct-19 19:31N 39°54' W 075°12'0 0.0
2017-Oct-19 19:01N 39°54' W 075°12'0 0.0
2017-Oct-19 18:31N 39°54' W 075°12'0 0.0
2017-Oct-19 18:00N 39°54' W 075°12'0 0.0
2017-Oct-19 17:30N 39°54' W 075°12'0 0.0
2017-Oct-19 17:00N 39°54' W 075°12'0 0.0
2017-Oct-19 16:30N 39°54' W 075°12'0 0.0
2017-Oct-19 16:00N 39°54' W 075°12'0 0.0
2017-Oct-19 15:30N 39°54' W 075°12'0 0.0
2017-Oct-19 15:00N 39°54' W 075°12'0 0.0
2017-Oct-19 14:31N 39°54' W 075°12'0 0.0
2017-Oct-19 14:00N 39°54' W 075°12'0 0.0
2017-Oct-19 13:30N 39°54' W 075°12'0 0.0
2017-Oct-19 13:00N 39°54' W 075°12'0 0.0
2017-Oct-19 12:31N 39°54' W 075°12'0 0.0
2017-Oct-19 12:01N 39°54' W 075°12'0 0.0
2017-Oct-19 11:30N 39°54' W 075°12'0 0.0
2017-Oct-19 11:01N 39°54' W 075°12'0 0.0
2017-Oct-19 10:31N 39°54' W 075°12'0 0.0
2017-Oct-19 10:01N 39°54' W 075°12'0 0.0
2017-Oct-19 09:31N 39°54' W 075°12'0 0.0
2017-Oct-19 09:01N 39°54' W 075°12'0 0.0
2017-Oct-19 08:31N 39°54' W 075°12'0 0.0
2017-Oct-19 08:00N 39°54' W 075°12'0 0.0
2017-Oct-19 07:31N 39°54' W 075°12'0 0.0
2017-Oct-19 07:00N 39°54' W 075°12'0 0.2
2017-Oct-19 06:31N 39°54' W 075°12'3 5.3
2017-Oct-19 06:00N 39°51' W 075°14'0 0.1
2017-Oct-19 05:31N 39°51' W 075°14'3 5.4
2017-Oct-19 05:01N 39°54' W 075°12'1 2.6
2017-Oct-19 04:30N 39°55' W 075°13'1 2.1
2017-Oct-19 04:01N 39°54' W 075°12'0 0.0
2017-Oct-19 03:31N 39°54' W 075°12'0 0.0
2017-Oct-19 03:00N 39°54' W 075°12'0 0.0
2017-Oct-19 02:31N 39°54' W 075°12'0 0.0
2017-Oct-19 02:00N 39°54' W 075°12'0 0.0
2017-Oct-19 01:31N 39°54' W 075°12'0 0.0
2017-Oct-19 01:01N 39°54' W 075°12'0 0.0
2017-Oct-19 00:31N 39°54' W 075°12'0 0.0
2017-Oct-19 00:00N 39°54' W 075°12'0 0.0
2017-Oct-18 23:31N 39°54' W 075°12'0 0.0
2017-Oct-18 23:00N 39°54' W 075°12'0 0.0
2017-Oct-18 22:30N 39°54' W 075°12'0 0.0
2017-Oct-18 22:01N 39°54' W 075°12'0 0.0
2017-Oct-18 21:30N 39°54' W 075°12'0 0.0
2017-Oct-18 21:01N 39°54' W 075°12'0 0.0
2017-Oct-18 20:31N 39°54' W 075°12'0 0.0
2017-Oct-18 20:00N 39°54' W 075°12'0 0.0
2017-Oct-18 19:30N 39°54' W 075°12'0 0.0
2017-Oct-18 19:00N 39°54' W 075°12'0 0.0
2017-Oct-18 18:30N 39°54' W 075°12'0 0.0
2017-Oct-18 18:00N 39°54' W 075°12'0 0.0
2017-Oct-18 17:30N 39°54' W 075°12'0 0.0
2017-Oct-18 17:00N 39°54' W 075°12'0 0.0
2017-Oct-18 16:30N 39°54' W 075°12'0 0.0
2017-Oct-18 16:00N 39°54' W 075°12'0 0.0
2017-Oct-18 15:30N 39°54' W 075°12'1 2.0
2017-Oct-18 15:00N 39°55' W 075°13'3 3.3
2017-Oct-18 14:00N 39°51' W 075°14'5 9.0
2017-Oct-18 13:30N 39°51' W 075°20'5 9.1
2017-Oct-18 13:01N 39°48' W 075°25'4 8.5
2017-Oct-18 12:30N 39°45' W 075°29'4 8.2
2017-Oct-18 12:00N 39°42' W 075°31'4 7.6
2017-Oct-18 11:30N 39°38' W 075°34'3 6.7
2017-Oct-18 11:00N 39°35' W 075°34'3 7.0
2017-Oct-18 10:31N 39°32' W 075°33'3 6.7
2017-Oct-18 10:00N 39°28' W 075°34'3 6.3
2017-Oct-18 09:30N 39°26' W 075°32'3 5.7
2017-Oct-18 09:00N 39°24' W 075°29'3 5.6
2017-Oct-18 08:31N 39°21' W 075°27'3 5.3
2017-Oct-18 08:01N 39°20' W 075°24'3 5.1
2017-Oct-18 07:30N 39°18' W 075°22'3 5.5
2017-Oct-18 07:01N 39°16' W 075°20'3 5.2
2017-Oct-18 06:30N 39°14' W 075°18'3 5.1
2017-Oct-18 06:00N 39°11' W 075°16'3 5.6
2017-Oct-18 05:30N 39°09' W 075°14'2 4.3
2017-Oct-18 05:00N 39°07' W 075°13'3 5.8
2017-Oct-18 04:30N 39°05' W 075°11'3 6.0
2017-Oct-18 04:00N 39°02' W 075°10'2 3.7
2017-Oct-18 03:31N 38°60' W 075°09'0 0.8
2017-Oct-18 03:01N 38°60' W 075°09'3 5.1
2017-Oct-18 02:30N 38°58' W 075°07'3 5.2
2017-Oct-18 02:00N 38°55' W 075°05'4 5.8
2017-Oct-18 01:22N 38°52' W 075°03'57 6.2
2017-Oct-17 16:14N 39°29' W 074°07'3 7.2
2017-Oct-17 15:51N 39°31' W 074°06'3 7.2
2017-Oct-17 15:29N 39°34' W 074°04'3 7.2
2017-Oct-17 15:00N 39°37' W 074°03'4 7.2
2017-Oct-17 14:30N 39°40' W 074°01'4 7.2
2017-Oct-17 14:00N 39°44' W 073°60'4 7.1
2017-Oct-17 13:30N 39°47' W 073°59'4 6.9
2017-Oct-17 12:59N 39°51' W 073°58'12 7.0
2017-Oct-17 11:19N 40°02' W 073°58'2 6.9
2017-Oct-17 11:00N 40°05' W 073°58'24 6.8
2017-Oct-17 07:23N 40°29' W 073°54'3 5.7
2017-Oct-17 06:54N 40°30' W 073°57'2 5.4
2017-Oct-17 06:30N 40°31' W 074°00'3 6.3
2017-Oct-17 06:00N 40°34' W 074°02'1 2.4
2017-Oct-17 05:30N 40°35' W 074°02'3 6.2
2017-Oct-17 05:01N 40°38' W 074°04'2 4.8
2017-Oct-17 04:30N 40°39' W 074°07'0 0.1
2017-Oct-17 04:00N 40°39' W 074°07'3 5.2
2017-Oct-17 03:30N 40°39' W 074°03'2 4.7
2017-Oct-17 03:00N 40°40' W 074°00'0 0.0
2017-Oct-17 02:30N 40°40' W 074°00'0 0.0
2017-Oct-17 02:00N 40°40' W 074°00'0 0.0
2017-Oct-17 01:30N 40°40' W 074°00'0 0.0
2017-Oct-17 01:00N 40°40' W 074°00'0 0.0
2017-Oct-17 00:30N 40°40' W 074°00'0 0.0
2017-Oct-17 00:00N 40°40' W 074°00'0 0.0
2017-Oct-16 23:30N 40°40' W 074°00'0 0.0
2017-Oct-16 23:00N 40°40' W 074°00'0 0.0
2017-Oct-16 22:30N 40°40' W 074°00'0 0.0
2017-Oct-16 22:00N 40°40' W 074°00'0 0.0
2017-Oct-16 21:30N 40°40' W 074°00'0 0.0
2017-Oct-16 21:00N 40°40' W 074°00'0 0.0
2017-Oct-16 20:30N 40°40' W 074°00'0 0.0
2017-Oct-16 20:00N 40°40' W 074°00'0 0.0
2017-Oct-16 19:30N 40°40' W 074°00'0 0.0
2017-Oct-16 19:00N 40°40' W 074°00'0 0.0
2017-Oct-16 18:30N 40°40' W 074°00'0 0.0
2017-Oct-16 18:00N 40°40' W 074°00'0 0.1
2017-Oct-16 17:31N 40°40' W 074°01'0 0.0
2017-Oct-16 17:00N 40°40' W 074°01'0 0.1
2017-Oct-16 16:30N 40°40' W 074°00'0 0.0
2017-Oct-16 16:00N 40°40' W 074°00'0 0.0
2017-Oct-16 15:30N 40°40' W 074°00'0 0.0
2017-Oct-16 15:00N 40°40' W 074°00'0 0.0
2017-Oct-16 14:30N 40°40' W 074°00'0 0.0
2017-Oct-16 13:30N 40°40' W 074°00'0 0.0
2017-Oct-16 13:00N 40°40' W 074°00'0 0.0
2017-Oct-16 12:30N 40°40' W 074°00'0 0.0
2017-Oct-16 12:00N 40°40' W 074°00'0 0.5
2017-Oct-16 11:30N 40°40' W 074°00'0 0.0
2017-Oct-16 11:00N 40°40' W 074°00'0 0.0
2017-Oct-16 10:30N 40°40' W 074°00'0 0.0
2017-Oct-16 10:00N 40°40' W 074°00'0 0.0
2017-Oct-16 09:30N 40°40' W 074°00'0 0.0
2017-Oct-16 09:00N 40°40' W 074°00'0 0.0
2017-Oct-16 08:30N 40°40' W 074°00'0 0.0
2017-Oct-16 08:00N 40°40' W 074°00'0 0.0
2017-Oct-16 07:31N 40°40' W 074°00'4 7.8
2017-Oct-16 07:00N 40°39' W 074°05'1 2.2
2017-Oct-16 06:30N 40°39' W 074°07'0 0.1
2017-Oct-16 06:00N 40°39' W 074°07'0 0.1
2017-Oct-16 05:30N 40°39' W 074°07'1 2.7
2017-Oct-16 05:00N 40°39' W 074°05'1 2.6
2017-Oct-16 04:30N 40°39' W 074°07'0 0.1
2017-Oct-16 04:00N 40°39' W 074°07'2 5.0
2017-Oct-16 03:30N 40°39' W 074°03'1 1.1
2017-Oct-16 03:00N 40°38' W 074°03'0 0.2
2017-Oct-16 02:30N 40°39' W 074°03'0 0.1
2017-Oct-16 02:00N 40°39' W 074°03'0 0.1
2017-Oct-16 01:30N 40°39' W 074°03'2 4.7
2017-Oct-16 01:01N 40°41' W 074°01'4 8.3
2017-Oct-16 00:30N 40°44' W 073°58'5 9.0
2017-Oct-16 00:00N 40°48' W 073°55'4 8.8
2017-Oct-15 23:30N 40°48' W 073°49'2 3.1
2017-Oct-15 22:59N 40°49' W 073°47'1 2.9
2017-Oct-15 22:30N 40°50' W 073°46'51 8.9
2017-Oct-15 16:43N 41°06' W 072°42'2 8.3
2017-Oct-15 16:30N 41°07' W 072°39'4 7.9
2017-Oct-15 16:00N 41°08' W 072°34'4 7.7
2017-Oct-15 15:30N 41°09' W 072°30'4 7.6
2017-Oct-15 15:00N 41°10' W 072°25'8 7.4
2017-Oct-15 13:59N 41°12' W 072°15'4 8.2
2017-Oct-15 13:30N 41°13' W 072°10'87 8.1
2017-Oct-15 02:48N 41°48' W 070°24'30 5.8
2017-Oct-14 21:36N 42°16' W 070°41'1 8.7
2017-Oct-14 21:30N 42°16' W 070°41'4 8.7
2017-Oct-14 21:00N 42°19' W 070°46'4 8.8
2017-Oct-14 20:31N 42°22' W 070°50'4 7.6
2017-Oct-14 20:01N 42°22' W 070°55'3 6.1
2017-Oct-14 19:31N 42°20' W 070°58'2 4.4
2017-Oct-14 19:00N 42°21' W 071°01'3 5.3
2017-Oct-14 18:30N 42°23' W 071°03'0 0.2
2017-Oct-14 18:00N 42°23' W 071°03'0 0.1
2017-Oct-14 17:30N 42°23' W 071°03'0 0.0
2017-Oct-14 17:00N 42°23' W 071°03'0 0.0
2017-Oct-14 16:30N 42°23' W 071°03'0 0.0
2017-Oct-14 16:00N 42°23' W 071°03'0 0.0
2017-Oct-14 15:30N 42°23' W 071°03'0 0.0
2017-Oct-14 15:00N 42°23' W 071°03'0 0.0
2017-Oct-14 14:30N 42°23' W 071°03'0 0.0
2017-Oct-14 14:00N 42°23' W 071°03'0 0.0
2017-Oct-14 13:30N 42°23' W 071°03'0 0.0
2017-Oct-14 13:00N 42°23' W 071°03'0 0.0
2017-Oct-14 12:30N 42°23' W 071°03'0 0.0
2017-Oct-14 12:00N 42°23' W 071°03'0 0.0
2017-Oct-14 11:30N 42°23' W 071°03'0 0.0
2017-Oct-14 11:00N 42°23' W 071°03'0 0.0
2017-Oct-14 10:30N 42°23' W 071°03'0 0.0
2017-Oct-14 10:00N 42°23' W 071°03'0 0.0
2017-Oct-14 09:30N 42°23' W 071°03'0 0.0
2017-Oct-14 09:00N 42°23' W 071°03'0 0.0
2017-Oct-14 08:30N 42°23' W 071°03'0 0.0
2017-Oct-14 08:00N 42°23' W 071°03'0 0.0
2017-Oct-14 07:30N 42°23' W 071°03'0 0.0
2017-Oct-14 07:00N 42°23' W 071°03'0 0.0
2017-Oct-14 06:30N 42°23' W 071°03'0 0.0
2017-Oct-14 06:00N 42°23' W 071°03'0 0.0
2017-Oct-14 05:30N 42°23' W 071°03'0 0.0
2017-Oct-14 05:00N 42°23' W 071°03'0 0.0
2017-Oct-14 04:30N 42°23' W 071°03'0 0.0
2017-Oct-14 04:00N 42°23' W 071°03'0 0.0
2017-Oct-14 03:30N 42°23' W 071°03'0 0.0
2017-Oct-14 03:00N 42°23' W 071°03'0 0.0
2017-Oct-14 02:30N 42°23' W 071°03'0 0.0
2017-Oct-14 02:00N 42°23' W 071°03'0 0.0
2017-Oct-14 01:30N 42°23' W 071°03'2 3.6
2017-Oct-14 00:58N 42°21' W 071°02'3 6.0
2017-Oct-14 00:29N 42°20' W 070°58'1 1.5
2017-Oct-14 00:00N 42°20' W 070°57'2 4.1
2017-Oct-13 23:30N 42°22' W 070°55'3 6.2
2017-Oct-13 23:01N 42°23' W 070°52'3 6.3
2017-Oct-13 22:30N 42°21' W 070°48'3 6.5
2017-Oct-13 22:00N 42°19' W 070°45'3 6.6
2017-Oct-13 21:30N 42°17' W 070°42'3 6.7
2017-Oct-13 21:00N 42°14' W 070°39'3 6.6
2017-Oct-13 20:30N 42°11' W 070°36'  

Dump ship's entire track history